createdAt,value
2022-09-20T00:00:27.340Z,99164.63
2022-09-20T00:03:29.472Z,99165.25
2022-09-20T00:06:32.520Z,99162.59
2022-09-20T00:09:34.651Z,99166.88
2022-09-20T00:12:36.758Z,99168.09
2022-09-20T00:15:45.996Z,99166.25
2022-09-20T00:18:49.895Z,99151.56
2022-09-20T00:21:52.000Z,99154.84
2022-09-20T00:24:54.103Z,99157.06
2022-09-20T00:27:56.220Z,99150.13
2022-09-20T00:30:58.358Z,99154.44
2022-09-20T00:34:19.280Z,99160.09
2022-09-20T00:37:21.427Z,99163.97
2022-09-20T00:40:24.711Z,99157.84
2022-09-20T00:43:41.207Z,99164.16
2022-09-20T00:46:44.862Z,99165.00
2022-09-20T00:49:47.180Z,99159.47
2022-09-20T00:52:52.827Z,99168.25
2022-09-20T00:56:07.503Z,99170.50
2022-09-20T00:59:29.089Z,99164.16
2022-09-20T01:02:31.204Z,99167.00
2022-09-20T01:05:33.499Z,99158.59
2022-09-20T01:08:36.550Z,99159.41
2022-09-20T01:11:39.796Z,99152.06
2022-09-20T01:14:42.920Z,99148.00
2022-09-20T01:17:50.595Z,99145.72
2022-09-20T01:20:52.742Z,99141.66
2022-09-20T01:24:04.356Z,99144.50
2022-09-20T01:27:48.477Z,99138.13
2022-09-20T01:30:53.307Z,99135.91
2022-09-20T01:34:09.654Z,99126.53
2022-09-20T01:37:27.989Z,99130.38
2022-09-20T01:40:36.113Z,99132.44
2022-09-20T01:44:03.905Z,99140.84
2022-09-20T01:47:27.599Z,99144.31
2022-09-20T01:50:35.803Z,99137.78
2022-09-20T01:53:56.911Z,99151.25
2022-09-20T01:57:34.246Z,99153.72
2022-09-20T02:01:15.348Z,99147.37
2022-09-20T02:04:35.347Z,99146.34
2022-09-20T02:07:52.338Z,99141.25
2022-09-20T02:11:20.985Z,99141.66
2022-09-20T02:14:41.849Z,99146.75
2022-09-20T02:18:06.966Z,99138.19
2022-09-20T02:21:29.630Z,99135.53
2022-09-20T02:24:53.278Z,99137.38
2022-09-20T02:28:17.400Z,99134.72
2022-09-20T02:31:48.386Z,99145.72
2022-09-20T02:35:12.469Z,99146.75
2022-09-20T02:38:36.326Z,99153.72
2022-09-20T02:41:52.863Z,99152.69
2022-09-20T02:45:00.667Z,99165.91
2022-09-20T02:48:05.815Z,99165.94
2022-09-20T02:51:28.603Z,99164.72
2022-09-20T02:54:46.223Z,99172.44
2022-09-20T02:58:26.233Z,99177.53
2022-09-20T03:01:39.086Z,99173.84
2022-09-20T03:05:03.031Z,99178.13
2022-09-20T03:08:28.202Z,99174.03
2022-09-20T03:11:51.743Z,99181.19
2022-09-20T03:15:19.003Z,99184.47
2022-09-20T03:18:59.378Z,99185.91
2022-09-20T03:22:23.432Z,99189.69
2022-09-20T03:25:44.281Z,99200.47
2022-09-20T03:29:14.784Z,99199.47
2022-09-20T03:32:44.674Z,99198.03
2022-09-20T03:36:04.897Z,99196.06
2022-09-20T03:39:16.032Z,99199.13
2022-09-20T03:42:19.117Z,99199.97
2022-09-20T03:45:43.213Z,99201.31
2022-09-20T03:49:06.862Z,99201.50
2022-09-20T03:52:20.899Z,99203.16
2022-09-20T03:55:41.552Z,99197.84
2022-09-20T03:59:05.506Z,99199.25
2022-09-20T04:02:27.150Z,99191.69
2022-09-20T04:05:35.372Z,99191.59
2022-09-20T04:09:01.762Z,99191.44
2022-09-20T04:12:40.693Z,99195.94
2022-09-20T04:16:20.190Z,99189.62
2022-09-20T04:19:33.223Z,99190.25
2022-09-20T04:22:35.977Z,99191.66
2022-09-20T04:25:44.213Z,99193.22
2022-09-20T04:28:52.392Z,99185.47
2022-09-20T04:32:00.234Z,99195.25
2022-09-20T04:35:42.443Z,99197.75
2022-09-20T04:38:48.439Z,99193.41
2022-09-20T04:41:59.553Z,99196.03
2022-09-20T04:45:10.763Z,99198.66
2022-09-20T04:48:36.892Z,99208.84
2022-09-20T04:52:06.960Z,99201.97
2022-09-20T04:55:36.545Z,99199.94
2022-09-20T04:58:42.139Z,99206.44
2022-09-20T05:02:03.614Z,99199.16
2022-09-20T05:05:06.321Z,99201.25
2022-09-20T05:08:46.476Z,99200.87
2022-09-20T05:11:55.185Z,99209.44
2022-09-20T05:15:09.797Z,99206.09
2022-09-20T05:18:39.508Z,99211.16
2022-09-20T05:22:03.994Z,99209.78
2022-09-20T05:25:45.217Z,99210.81
2022-09-20T05:29:22.566Z,99211.81
2022-09-20T05:32:33.404Z,99219.06
2022-09-20T05:36:06.715Z,99217.41
2022-09-20T05:39:38.859Z,99225.41
2022-09-20T05:42:47.142Z,99230.34
2022-09-20T05:46:17.294Z,99227.84
2022-09-20T05:49:34.532Z,99237.94
2022-09-20T05:52:59.630Z,99231.22
2022-09-20T05:56:11.024Z,99231.63
2022-09-20T05:59:49.388Z,99232.72
2022-09-20T06:03:09.579Z,99228.63
2022-09-20T06:06:38.544Z,99236.78
2022-09-20T06:09:46.703Z,99244.28
2022-09-20T06:12:52.514Z,99254.44
2022-09-20T06:16:00.402Z,99249.62
2022-09-20T06:19:27.596Z,99250.03
2022-09-20T06:22:33.936Z,99248.53
2022-09-20T06:25:47.667Z,99252.59
2022-09-20T06:28:58.660Z,99253.94
2022-09-20T06:32:01.071Z,99250.72
2022-09-20T06:35:04.313Z,99252.97
2022-09-20T06:38:59.389Z,99246.19
2022-09-20T06:42:01.680Z,99250.75
2022-09-20T06:45:04.288Z,99258.47
2022-09-20T06:48:06.484Z,99250.69
2022-09-20T06:51:12.482Z,99250.91
2022-09-20T06:54:17.999Z,99263.06
2022-09-20T06:57:24.622Z,99250.41
2022-09-20T07:00:26.814Z,99253.78
2022-09-20T07:03:28.939Z,99262.75
2022-09-20T07:06:31.162Z,99262.88
2022-09-20T07:09:33.431Z,99267.13
2022-09-20T07:12:35.698Z,99267.34
2022-09-20T07:15:38.060Z,99276.59
2022-09-20T07:18:41.378Z,99275.00
2022-09-20T07:21:43.616Z,99267.59
2022-09-20T07:24:46.520Z,99274.69
2022-09-20T07:27:50.398Z,99275.59
2022-09-20T07:30:52.572Z,99287.81
2022-09-20T07:33:54.862Z,99285.50
2022-09-20T07:36:57.372Z,99288.09
2022-09-20T07:39:59.689Z,99304.16
2022-09-20T07:43:01.933Z,99298.13
2022-09-20T07:46:04.911Z,99299.37
2022-09-20T07:49:07.103Z,99299.84
2022-09-20T07:52:11.208Z,99304.97
2022-09-20T07:55:13.554Z,99302.03
2022-09-20T07:58:15.703Z,99311.50
2022-09-20T08:01:17.989Z,99315.87
2022-09-20T08:04:20.273Z,99306.72
2022-09-20T08:07:22.719Z,99307.31
2022-09-20T08:10:26.920Z,99312.97
2022-09-20T08:16:52.228Z,99321.94
2022-09-20T08:19:54.394Z,99322.59
2022-09-20T08:23:21.976Z,99317.19
2022-09-20T08:26:24.591Z,99313.97
2022-09-20T08:29:26.764Z,99314.81
2022-09-20T08:32:28.903Z,99317.25
2022-09-20T08:35:31.020Z,99327.66
2022-09-20T08:42:27.209Z,99316.28
2022-09-20T08:45:36.726Z,99324.75
2022-09-20T08:48:39.166Z,99327.84
2022-09-20T08:51:41.896Z,99336.97
2022-09-20T08:54:44.056Z,99327.41
2022-09-20T08:57:54.389Z,99323.19
2022-09-20T09:00:58.685Z,99324.53
2022-09-20T09:04:16.386Z,99319.62
2022-09-20T09:07:21.761Z,99326.03
2022-09-20T09:10:23.980Z,99322.22
2022-09-20T09:14:01.558Z,99320.06
2022-09-20T09:17:03.925Z,99325.13
2022-09-20T09:20:24.070Z,99318.38
2022-09-20T09:23:27.957Z,99313.72
2022-09-20T09:26:36.871Z,99315.72
2022-09-20T09:29:49.605Z,99310.22
2022-09-20T09:32:53.205Z,99313.84
2022-09-20T09:36:00.313Z,99322.44
2022-09-20T09:39:25.328Z,99320.09
2022-09-20T09:42:29.775Z,99320.63
2022-09-20T09:45:38.509Z,99317.41
2022-09-20T09:48:40.871Z,99306.31
2022-09-20T09:52:03.303Z,99312.78
2022-09-20T09:55:06.118Z,99312.34
2022-09-20T09:58:24.330Z,99314.28
2022-09-20T10:01:33.560Z,99316.50
2022-09-20T10:04:58.134Z,99303.06
2022-09-20T10:08:25.240Z,99305.47
2022-09-20T10:11:50.067Z,99310.00
2022-09-20T10:15:24.466Z,99304.69
2022-09-20T10:18:38.541Z,99313.06
2022-09-20T10:22:11.916Z,99305.16
2022-09-20T10:25:48.596Z,99305.47
2022-09-20T10:29:19.889Z,99302.31
2022-09-20T10:32:39.581Z,99293.91
2022-09-20T10:35:53.574Z,99296.03
2022-09-20T10:39:06.544Z,99294.06
2022-09-20T10:42:30.050Z,99300.16
2022-09-20T10:49:43.047Z,99294.22
2022-09-20T10:53:01.748Z,99291.75
2022-09-20T10:56:26.828Z,99284.50
2022-09-20T10:59:51.358Z,99289.06
2022-09-20T11:03:04.029Z,99293.34
2022-09-20T11:06:24.276Z,99290.19
2022-09-20T11:09:31.597Z,99291.06
2022-09-20T11:12:39.498Z,99285.66
2022-09-20T11:16:09.839Z,99288.25
2022-09-20T11:19:11.987Z,99282.06
2022-09-20T11:22:20.295Z,99273.38
2022-09-20T11:25:33.049Z,99274.81
2022-09-20T11:28:41.404Z,99275.06
2022-09-20T11:31:46.495Z,99268.53
2022-09-20T11:35:11.264Z,99261.84
2022-09-20T11:38:32.987Z,99259.22
2022-09-20T11:41:35.196Z,99259.59
2022-09-20T11:44:41.418Z,99257.28
2022-09-20T11:47:56.221Z,99263.16
2022-09-20T11:51:19.794Z,99263.03
2022-09-20T11:54:57.333Z,99257.25
2022-09-20T11:58:08.076Z,99246.63
2022-09-20T12:01:12.902Z,99249.62
2022-09-20T12:04:32.423Z,99255.13
2022-09-20T12:07:38.466Z,99247.28
2022-09-20T12:10:40.934Z,99246.16
2022-09-20T12:13:53.302Z,99251.19
2022-09-20T12:16:56.886Z,99247.19
2022-09-20T12:19:59.128Z,99239.37
2022-09-20T12:23:42.256Z,99238.66
2022-09-20T12:26:45.354Z,99224.19
2022-09-20T12:29:51.068Z,99229.06
2022-09-20T12:32:58.671Z,99232.16
2022-09-20T12:36:15.773Z,99231.53
2022-09-20T12:39:26.314Z,99220.72
2022-09-20T12:42:33.639Z,99225.81
2022-09-20T12:45:35.869Z,99220.97
2022-09-20T12:48:38.319Z,99233.94
2022-09-20T12:51:59.129Z,99226.72
2022-09-20T12:55:04.745Z,99231.34
2022-09-20T12:58:18.643Z,99227.38
2022-09-20T13:01:20.986Z,99224.56
2022-09-20T13:04:53.722Z,99223.31
2022-09-20T13:08:01.481Z,99215.69
2022-09-20T13:11:06.884Z,99224.81
2022-09-20T13:14:15.033Z,99215.63
2022-09-20T13:17:27.269Z,99216.72
2022-09-20T13:20:34.751Z,99224.75
2022-09-20T13:23:52.266Z,99226.63
2022-09-20T13:26:56.751Z,99239.28
2022-09-20T13:30:17.564Z,99230.66
2022-09-20T13:33:24.275Z,99243.44
2022-09-20T13:36:28.892Z,99239.34
2022-09-20T13:39:36.126Z,99248.09
2022-09-20T13:42:38.324Z,99239.91
2022-09-20T13:45:42.805Z,99232.53
2022-09-20T13:48:52.903Z,99242.66
2022-09-20T13:51:55.065Z,99244.03
2022-09-20T13:54:57.381Z,99244.50
2022-09-20T13:58:03.111Z,99242.66
2022-09-20T14:01:06.856Z,99248.13
2022-09-20T14:04:15.220Z,99243.75
2022-09-20T14:07:17.746Z,99247.28
2022-09-20T14:10:46.178Z,99248.34
2022-09-20T14:13:50.646Z,99249.00
2022-09-20T14:16:54.771Z,99248.00
2022-09-20T14:19:57.668Z,99253.53
2022-09-20T14:23:00.885Z,99250.12
2022-09-20T14:26:39.752Z,99245.25
2022-09-20T14:29:50.658Z,99248.97
2022-09-20T14:32:54.586Z,99250.81
2022-09-20T14:35:57.822Z,99249.56
2022-09-20T14:39:04.550Z,99245.75
2022-09-20T14:42:18.550Z,99256.09
2022-09-20T14:45:32.329Z,99264.28
2022-09-20T14:48:41.337Z,99255.19
2022-09-20T14:51:44.930Z,99259.31
2022-09-20T14:54:59.044Z,99266.69
2022-09-20T14:58:12.384Z,99259.88
2022-09-20T15:01:23.924Z,99263.22
2022-09-20T15:04:28.152Z,99272.28
2022-09-20T15:07:30.451Z,99270.59
2022-09-20T15:10:32.661Z,99267.88
2022-09-20T15:13:36.185Z,99266.09
2022-09-20T15:16:38.476Z,99272.31
2022-09-20T15:19:40.651Z,99267.56
2022-09-20T15:22:43.107Z,99276.81
2022-09-20T15:25:45.684Z,99276.91
2022-09-20T15:28:48.296Z,99277.16
2022-09-20T15:31:50.512Z,99280.34
2022-09-20T15:34:52.941Z,99284.87
2022-09-20T15:37:55.162Z,99297.34
2022-09-20T15:41:00.515Z,99295.84
2022-09-20T15:44:06.564Z,99296.91
2022-09-20T15:47:10.920Z,99306.19
2022-09-20T15:50:16.442Z,99303.03
2022-09-20T15:53:18.606Z,99300.50
2022-09-20T15:56:29.167Z,99302.81
2022-09-20T15:59:33.037Z,99312.06
2022-09-20T16:02:35.216Z,99308.16
2022-09-20T16:05:37.502Z,99317.41
2022-09-20T16:08:41.337Z,99312.53
2022-09-20T16:11:43.609Z,99320.16
2022-09-20T16:14:45.776Z,99322.28
2022-09-20T16:18:06.239Z,99322.56
2022-09-20T16:21:13.109Z,99326.19
2022-09-20T16:24:16.903Z,99319.12
2022-09-20T16:27:19.148Z,99323.00
2022-09-20T16:30:21.343Z,99324.03
2022-09-20T16:33:23.738Z,99324.91
2022-09-20T16:36:27.579Z,99331.09
2022-09-20T16:39:31.027Z,99327.00
2022-09-20T16:42:33.445Z,99325.81
2022-09-20T16:45:35.878Z,99327.91
2022-09-20T16:48:38.032Z,99327.28
2022-09-20T16:51:41.522Z,99329.75
2022-09-20T16:54:43.645Z,99331.22
2022-09-20T16:57:49.040Z,99332.47
2022-09-20T17:00:51.228Z,99332.25
2022-09-20T17:03:54.725Z,99318.59
2022-09-20T17:06:57.013Z,99320.44
2022-09-20T17:10:01.374Z,99329.87
2022-09-20T17:13:04.359Z,99326.78
2022-09-20T17:16:13.187Z,99323.09
2022-09-20T17:19:18.357Z,99334.38
2022-09-20T17:22:20.933Z,99332.53
2022-09-20T17:25:23.099Z,99337.31
2022-09-20T17:28:25.277Z,99339.97
2022-09-20T17:31:31.643Z,99334.03
2022-09-20T17:34:34.230Z,99349.00
2022-09-20T17:37:36.435Z,99343.50
2022-09-20T17:40:38.636Z,99344.31
2022-09-20T17:43:41.861Z,99350.44
2022-09-20T17:46:45.895Z,99353.47
2022-09-20T17:49:48.076Z,99357.75
2022-09-20T17:52:50.248Z,99369.19
2022-09-20T17:55:56.391Z,99369.56
2022-09-20T17:59:00.225Z,99373.56
2022-09-20T18:02:02.458Z,99377.44
2022-09-20T18:05:05.098Z,99379.88
2022-09-20T18:08:07.295Z,99383.56
2022-09-20T18:11:09.552Z,99377.16
2022-09-20T18:14:13.238Z,99391.41
2022-09-20T18:17:15.422Z,99389.91
2022-09-20T18:20:17.638Z,99394.16
2022-09-20T18:23:19.786Z,99401.50
2022-09-20T18:26:30.157Z,99399.44
2022-09-20T18:29:36.693Z,99397.56
2022-09-20T18:32:39.988Z,99399.09
2022-09-20T18:35:42.727Z,99411.09
2022-09-20T18:38:45.777Z,99410.28
2022-09-20T18:41:50.448Z,99410.28
2022-09-20T18:44:52.709Z,99414.09
2022-09-20T18:47:57.925Z,99417.59
2022-09-20T18:51:01.677Z,99424.34
2022-09-20T18:54:04.295Z,99426.44
2022-09-20T18:57:09.081Z,99421.94
2022-09-20T19:00:12.636Z,99421.75
2022-09-20T19:03:27.966Z,99423.03
2022-09-20T19:06:35.564Z,99432.00
2022-09-20T19:09:52.783Z,99421.56
2022-09-20T19:13:07.944Z,99415.31
2022-09-20T19:16:19.322Z,99412.66
2022-09-20T19:19:40.290Z,99426.19
2022-09-20T19:22:57.956Z,99432.25
2022-09-20T19:26:18.986Z,99432.38
2022-09-20T19:29:25.195Z,99428.63
2022-09-20T19:32:27.889Z,99429.84
2022-09-20T19:35:41.087Z,99426.66
2022-09-20T19:39:04.638Z,99423.16
2022-09-20T19:42:38.070Z,99428.34
2022-09-20T19:46:09.968Z,99430.47
2022-09-20T19:49:15.218Z,99431.13
2022-09-20T19:52:17.589Z,99434.06
2022-09-20T19:55:20.346Z,99438.66
2022-09-20T19:58:23.512Z,99434.28
2022-09-20T20:01:27.139Z,99438.34
2022-09-20T20:04:29.623Z,99446.47
2022-09-20T20:07:39.449Z,99456.06
2022-09-20T20:10:56.848Z,99461.25
2022-09-20T20:14:17.375Z,99469.19
2022-09-20T20:17:51.729Z,99469.09
2022-09-20T20:20:56.565Z,99474.44
2022-09-20T20:24:33.422Z,99465.16
2022-09-20T20:27:35.826Z,99477.47
2022-09-20T20:30:38.095Z,99479.97
2022-09-20T20:33:40.718Z,99482.34
2022-09-20T20:36:46.363Z,99488.44
2022-09-20T20:39:48.548Z,99484.59
2022-09-20T20:42:59.358Z,99492.56
2022-09-20T20:46:02.147Z,99492.94
2022-09-20T20:49:05.239Z,99493.47
2022-09-20T20:52:08.954Z,99501.12
2022-09-20T20:55:13.905Z,99501.38
2022-09-20T20:58:16.067Z,99497.28
2022-09-20T21:01:20.953Z,99502.50
2022-09-20T21:04:25.341Z,99500.03
2022-09-20T21:07:28.646Z,99506.31
2022-09-20T21:10:30.828Z,99504.31
2022-09-20T21:13:33.142Z,99505.84
2022-09-20T21:16:37.881Z,99499.69
2022-09-20T21:19:40.478Z,99505.31
2022-09-20T21:22:42.634Z,99506.97
2022-09-20T21:25:45.123Z,99511.72
2022-09-20T21:28:59.132Z,99517.19
2022-09-20T21:32:01.546Z,99521.31
2022-09-20T21:35:03.913Z,99528.22
2022-09-20T21:38:06.254Z,99519.94
2022-09-20T21:41:15.990Z,99514.41
2022-09-20T21:44:20.477Z,99517.88
2022-09-20T21:47:22.633Z,99516.94
2022-09-20T21:50:25.554Z,99517.94
2022-09-20T21:53:27.760Z,99523.34
2022-09-20T21:56:34.283Z,99525.38
2022-09-20T21:59:36.416Z,99520.87
2022-09-20T22:02:39.545Z,99518.09
2022-09-20T22:05:41.999Z,99517.81
2022-09-20T22:08:47.011Z,99522.09
2022-09-20T22:11:49.240Z,99525.22
2022-09-20T22:14:51.430Z,99525.62
2022-09-20T22:17:53.769Z,99527.94
2022-09-20T22:21:23.722Z,99524.28
2022-09-20T22:24:26.158Z,99534.09
2022-09-20T22:27:28.286Z,99531.75
2022-09-20T22:30:30.479Z,99525.50
2022-09-20T22:33:32.854Z,99528.72
2022-09-20T22:36:37.746Z,99529.37
2022-09-20T22:39:39.922Z,99531.34
2022-09-20T22:42:42.228Z,99531.88
2022-09-20T22:45:44.697Z,99535.47
2022-09-20T22:48:47.249Z,99530.00
2022-09-20T22:51:49.420Z,99534.88
2022-09-20T22:54:51.561Z,99531.09
2022-09-20T22:57:53.756Z,99531.78
2022-09-20T23:00:56.232Z,99536.06
2022-09-20T23:04:07.835Z,99538.41
2022-09-20T23:07:10.380Z,99533.47
2022-09-20T23:10:12.573Z,99536.37
2022-09-20T23:13:14.764Z,99530.84
2022-09-20T23:16:21.508Z,99529.37
2022-09-20T23:19:23.694Z,99522.06
2022-09-20T23:22:25.841Z,99525.16
2022-09-20T23:25:28.235Z,99523.56
2022-09-20T23:28:30.371Z,99526.72
2022-09-20T23:31:34.692Z,99530.44
2022-09-20T23:34:36.896Z,99530.75
2022-09-20T23:37:39.844Z,99529.44
2022-09-20T23:40:42.013Z,99536.34
2022-09-20T23:43:44.301Z,99543.28
2022-09-20T23:46:46.517Z,99539.31
2022-09-20T23:49:48.742Z,99532.22
2022-09-20T23:52:50.883Z,99538.28
2022-09-20T23:55:53.017Z,99537.28
2022-09-20T23:58:55.189Z,99539.03
